createdAt,value
2019-05-25T00:00:02.113Z,99843.18
2019-05-25T00:00:38.432Z,99838.47
2019-05-25T00:01:15.465Z,99843.44
2019-05-25T00:01:52.581Z,99844.48
2019-05-25T00:02:29.405Z,99844.27
2019-05-25T00:03:06.081Z,99847.72
2019-05-25T00:03:42.778Z,99845.41
2019-05-25T00:04:18.868Z,99844.68
2019-05-25T00:04:55.739Z,99845.52
2019-05-25T00:05:32.416Z,99847.72
2019-05-25T00:06:08.461Z,99851.12
2019-05-25T00:06:45.058Z,99845.77
2019-05-25T00:07:21.738Z,99851.83
2019-05-25T00:07:57.779Z,99854.73
2019-05-25T00:08:34.734Z,99851.69
2019-05-25T00:09:11.361Z,99844.92
2019-05-25T00:09:48.625Z,99847.52
2019-05-25T00:10:26.156Z,99852.12
2019-05-25T00:11:03.544Z,99848.77
2019-05-25T00:11:39.988Z,99852.80
2019-05-25T00:12:17.414Z,99854.06
2019-05-25T00:12:54.059Z,99854.47
2019-05-25T00:13:30.096Z,99851.38
2019-05-25T00:14:07.097Z,99851.63
2019-05-25T00:14:43.829Z,99848.28
2019-05-25T00:15:19.940Z,99843.88
2019-05-25T00:15:56.932Z,99846.03
2019-05-25T00:16:34.677Z,99851.36
2019-05-25T00:17:10.747Z,99846.94
2019-05-25T00:17:47.464Z,99846.47
2019-05-25T00:18:24.252Z,99847.09
2019-05-25T00:19:00.660Z,99844.82
2019-05-25T00:19:37.300Z,99844.80
2019-05-25T00:20:14.266Z,99849.19
2019-05-25T00:20:50.514Z,99845.73
2019-05-25T00:21:27.639Z,99846.34
2019-05-25T00:22:04.235Z,99843.48
2019-05-25T00:22:40.545Z,99854.42
2019-05-25T00:23:17.206Z,99843.22
2019-05-25T00:23:53.894Z,99844.66
2019-05-25T00:24:30.515Z,99840.61
2019-05-25T00:25:07.206Z,99843.02
2019-05-25T00:25:43.895Z,99843.86
2019-05-25T00:26:20.146Z,99847.17
2019-05-25T00:26:57.414Z,99841.58
2019-05-25T00:27:34.029Z,99845.03
2019-05-25T00:28:10.058Z,99840.03
2019-05-25T00:28:46.687Z,99845.37
2019-05-25T00:29:23.658Z,99846.94
2019-05-25T00:29:59.980Z,99845.50
2019-05-25T00:30:36.777Z,99844.66
2019-05-25T00:31:13.696Z,99844.66
2019-05-25T00:31:49.751Z,99839.20
2019-05-25T00:32:26.383Z,99848.83
2019-05-25T00:33:03.304Z,99852.64
2019-05-25T00:33:39.329Z,99847.15
2019-05-25T00:34:16.237Z,99850.60
2019-05-25T00:34:53.736Z,99845.37
2019-05-25T00:35:30.522Z,99849.19
2019-05-25T00:36:07.193Z,99850.97
2019-05-25T00:36:44.042Z,99850.26
2019-05-25T00:37:20.066Z,99849.56
2019-05-25T00:37:56.711Z,99850.52
2019-05-25T00:38:33.299Z,99855.66
2019-05-25T00:39:09.404Z,99850.99
2019-05-25T00:39:46.588Z,99845.40
2019-05-25T00:40:23.288Z,99850.89
2019-05-25T00:40:59.292Z,99851.56
2019-05-25T00:41:35.915Z,99856.09
2019-05-25T00:42:12.915Z,99849.56
2019-05-25T00:42:49.015Z,99855.49
2019-05-25T00:43:26.342Z,99851.80
2019-05-25T00:44:03.003Z,99852.45
2019-05-25T00:44:39.124Z,99854.89
2019-05-25T00:45:15.750Z,99853.58
2019-05-25T00:45:52.527Z,99853.81
2019-05-25T00:46:28.680Z,99858.71
2019-05-25T00:47:06.002Z,99854.52
2019-05-25T00:47:42.614Z,99855.36
2019-05-25T00:48:19.054Z,99852.51
2019-05-25T00:48:55.702Z,99855.63
2019-05-25T00:49:32.344Z,99853.95
2019-05-25T00:50:08.699Z,99858.45
2019-05-25T00:50:45.340Z,99856.30
2019-05-25T00:51:22.071Z,99858.63
2019-05-25T00:51:58.380Z,99856.20
2019-05-25T00:52:35.363Z,99856.20
2019-05-25T00:53:11.983Z,99854.89
2019-05-25T00:53:48.349Z,99856.70
2019-05-25T00:54:28.116Z,99852.09
2019-05-25T00:55:03.327Z,99854.73
2019-05-25T00:55:39.525Z,99851.16
2019-05-25T00:56:16.228Z,99854.34
2019-05-25T00:56:52.927Z,99855.66
2019-05-25T00:57:29.287Z,99855.86
2019-05-25T00:58:06.237Z,99848.59
2019-05-25T00:58:43.621Z,99852.51
2019-05-25T00:59:19.755Z,99854.32
2019-05-25T00:59:56.488Z,99853.34
2019-05-25T01:00:33.549Z,99848.25
2019-05-25T01:01:09.595Z,99847.28
2019-05-25T01:01:46.663Z,99854.32
2019-05-25T01:02:23.315Z,99850.03
2019-05-25T01:02:59.365Z,99849.66
2019-05-25T01:03:35.995Z,99852.27
2019-05-25T01:04:13.068Z,99844.72
2019-05-25T01:04:49.177Z,99855.08
2019-05-25T01:05:26.094Z,99851.02
2019-05-25T01:06:03.096Z,99848.01
2019-05-25T01:06:39.113Z,99854.45
2019-05-25T01:07:15.746Z,99855.59
2019-05-25T01:07:52.429Z,99858.29
2019-05-25T01:08:28.915Z,99855.49
2019-05-25T01:09:07.175Z,99862.07
2019-05-25T01:09:43.794Z,99860.27
2019-05-25T01:10:20.063Z,99863.47
2019-05-25T01:10:57.040Z,99864.32
2019-05-25T01:11:33.637Z,99864.15
2019-05-25T01:12:09.685Z,99861.78
2019-05-25T01:12:46.737Z,99857.28
2019-05-25T01:13:23.432Z,99861.94
2019-05-25T01:13:59.701Z,99859.30
2019-05-25T01:14:36.406Z,99863.59
2019-05-25T01:15:14.721Z,99869.72
2019-05-25T01:15:50.834Z,99869.22
2019-05-25T01:16:28.168Z,99867.52
2019-05-25T01:17:05.503Z,99864.19
2019-05-25T01:17:41.934Z,99867.41
2019-05-25T01:18:18.850Z,99871.70
2019-05-25T01:18:55.698Z,99869.22
2019-05-25T01:19:32.017Z,99869.16
2019-05-25T01:20:09.385Z,99873.03
2019-05-25T01:20:46.750Z,99870.98
2019-05-25T01:21:22.845Z,99871.05
2019-05-25T01:21:59.560Z,99872.41
2019-05-25T01:22:36.162Z,99871.47
2019-05-25T01:23:12.201Z,99879.64
2019-05-25T01:23:49.076Z,99877.22
2019-05-25T01:24:25.899Z,99874.05
2019-05-25T01:25:01.967Z,99878.35
2019-05-25T01:25:38.589Z,99876.73
2019-05-25T01:26:15.291Z,99878.84
2019-05-25T01:26:51.381Z,99879.14
2019-05-25T01:27:28.555Z,99874.80
2019-05-25T01:28:05.243Z,99877.53
2019-05-25T01:28:41.310Z,99872.88
2019-05-25T01:29:17.695Z,99875.91
2019-05-25T01:29:54.431Z,99882.39
2019-05-25T01:30:30.793Z,99866.98
2019-05-25T01:31:07.774Z,99870.16
2019-05-25T01:31:44.482Z,99874.39
2019-05-25T01:32:21.263Z,99872.77
2019-05-25T01:32:57.919Z,99865.31
2019-05-25T01:33:34.548Z,99867.66
2019-05-25T01:34:11.048Z,99868.95
2019-05-25T01:34:48.185Z,99864.63
2019-05-25T01:35:24.825Z,99859.20
2019-05-25T01:36:01.014Z,99860.70
2019-05-25T01:36:37.663Z,99863.14
2019-05-25T01:37:15.208Z,99866.26
2019-05-25T01:37:51.821Z,99859.40
2019-05-25T01:38:28.911Z,99855.58
2019-05-25T01:39:07.473Z,99856.98
2019-05-25T01:39:43.573Z,99858.19
2019-05-25T01:40:20.964Z,99849.89
2019-05-25T01:40:58.526Z,99854.64
2019-05-25T01:41:34.571Z,99846.44
2019-05-25T01:42:11.557Z,99855.38
2019-05-25T01:42:47.625Z,99849.79
2019-05-25T01:43:23.696Z,99854.81
2019-05-25T01:44:00.422Z,99853.01
2019-05-25T01:44:37.043Z,99850.89
2019-05-25T01:45:15.680Z,99849.79
2019-05-25T01:45:53.032Z,99850.06
2019-05-25T01:46:29.705Z,99855.16
2019-05-25T01:47:05.753Z,99855.16
2019-05-25T01:47:43.141Z,99855.99
2019-05-25T01:48:20.256Z,99858.51
2019-05-25T01:48:56.439Z,99861.59
2019-05-25T01:49:33.145Z,99865.21
2019-05-25T01:50:09.994Z,99865.21
2019-05-25T01:50:46.774Z,99867.75
2019-05-25T01:51:25.220Z,99867.59
2019-05-25T01:52:02.612Z,99863.91
2019-05-25T01:52:39.122Z,99868.33
2019-05-25T01:53:16.238Z,99871.14
2019-05-25T01:53:52.921Z,99864.74
2019-05-25T01:54:29.500Z,99871.14
2019-05-25T01:55:07.159Z,99868.14
2019-05-25T01:55:44.532Z,99869.64
2019-05-25T01:56:21.130Z,99869.73
2019-05-25T01:56:58.047Z,99869.59
2019-05-25T01:57:34.727Z,99868.39
2019-05-25T01:58:10.798Z,99866.25
2019-05-25T01:58:47.763Z,99869.42
2019-05-25T01:59:24.448Z,99868.48
2019-05-25T02:00:00.980Z,99864.10
2019-05-25T02:00:37.626Z,99865.92
2019-05-25T02:01:14.684Z,99868.16
2019-05-25T02:01:50.788Z,99861.95
2019-05-25T02:02:27.493Z,99861.22
2019-05-25T02:03:04.583Z,99865.14
2019-05-25T02:03:41.377Z,99866.34
2019-05-25T02:04:18.370Z,99867.19
2019-05-25T02:04:55.078Z,99867.66
2019-05-25T02:05:31.531Z,99863.63
2019-05-25T02:06:08.593Z,99861.95
2019-05-25T02:06:44.651Z,99862.80
2019-05-25T02:07:20.747Z,99864.84
2019-05-25T02:07:57.523Z,99866.15
2019-05-25T02:08:33.601Z,99862.80
2019-05-25T02:09:09.954Z,99863.63
2019-05-25T02:09:46.926Z,99857.10
2019-05-25T02:10:23.066Z,99859.72
2019-05-25T02:10:59.237Z,99860.92
2019-05-25T02:11:36.316Z,99858.31
2019-05-25T02:12:12.437Z,99857.94
2019-05-25T02:12:48.500Z,99862.70
2019-05-25T02:13:25.705Z,99858.55
2019-05-25T02:14:02.384Z,99858.92
2019-05-25T02:14:39.267Z,99858.45
2019-05-25T02:15:15.930Z,99857.14
2019-05-25T02:15:52.931Z,99853.92
2019-05-25T02:16:29.232Z,99856.27
2019-05-25T02:17:06.141Z,99857.98
2019-05-25T02:17:42.149Z,99864.24
2019-05-25T02:18:18.258Z,99861.48
2019-05-25T02:18:55.483Z,99861.22
2019-05-25T02:19:32.728Z,99864.06
2019-05-25T02:20:08.899Z,99862.66
2019-05-25T02:20:45.351Z,99865.04
2019-05-25T02:21:22.093Z,99868.77
2019-05-25T02:21:58.681Z,99860.75
2019-05-25T02:22:34.736Z,99863.59
2019-05-25T02:23:11.366Z,99860.80
2019-05-25T02:23:47.128Z,99869.95
2019-05-25T02:24:23.785Z,99864.35
2019-05-25T02:25:16.360Z,99864.53
2019-05-25T02:25:38.849Z,99858.92
2019-05-25T02:26:14.980Z,99856.36
2019-05-25T02:26:52.013Z,99852.03
2019-05-25T02:27:27.951Z,99856.61
2019-05-25T02:28:04.741Z,99852.28
2019-05-25T02:28:41.474Z,99851.11
2019-05-25T02:29:17.512Z,99859.50
2019-05-25T02:29:54.616Z,99850.09
2019-05-25T02:30:31.532Z,99855.22
2019-05-25T02:31:07.048Z,99855.63
2019-05-25T02:31:44.000Z,99859.65
2019-05-25T02:32:20.041Z,99861.94
2019-05-25T02:32:56.232Z,99858.44
2019-05-25T02:33:32.348Z,99860.17
2019-05-25T02:34:09.343Z,99855.98
2019-05-25T02:34:45.136Z,99856.03
2019-05-25T02:35:29.109Z,99860.78
2019-05-25T02:36:05.324Z,99862.97
2019-05-25T02:36:41.427Z,99862.59
2019-05-25T02:37:17.776Z,99864.46
2019-05-25T02:37:54.241Z,99863.00
2019-05-25T02:38:30.093Z,99857.82
2019-05-25T02:39:07.929Z,99859.89
2019-05-25T02:39:44.540Z,99863.63
2019-05-25T02:40:20.594Z,99863.48
2019-05-25T02:40:57.473Z,99867.72
2019-05-25T02:41:34.186Z,99864.09
2019-05-25T02:42:09.650Z,99856.67
2019-05-25T02:42:46.436Z,99861.89
2019-05-25T02:43:22.469Z,99863.51
2019-05-25T02:43:58.311Z,99863.04
2019-05-25T02:44:34.510Z,99865.84
2019-05-25T02:45:10.555Z,99865.47
2019-05-25T02:45:46.030Z,99859.62
2019-05-25T02:46:22.397Z,99864.37
2019-05-25T02:46:58.647Z,99856.70
2019-05-25T02:47:34.674Z,99861.11
2019-05-25T02:48:11.306Z,99862.45
2019-05-25T02:48:48.315Z,99860.52
2019-05-25T02:49:24.539Z,99859.13
2019-05-25T02:50:01.045Z,99861.95
2019-05-25T02:50:37.906Z,99858.66
2019-05-25T02:51:13.471Z,99859.22
2019-05-25T02:51:50.345Z,99859.31
2019-05-25T02:52:26.515Z,99857.30
2019-05-25T02:53:02.962Z,99860.84
2019-05-25T02:53:39.272Z,99864.56
2019-05-25T02:54:15.737Z,99860.75
2019-05-25T02:54:51.205Z,99863.82
2019-05-25T02:55:34.284Z,99868.22
2019-05-25T02:56:06.351Z,99860.43
2019-05-25T02:56:42.248Z,99863.13
2019-05-25T02:57:18.360Z,99862.61
2019-05-25T02:57:54.666Z,99865.41
2019-05-25T02:58:30.571Z,99867.48
2019-05-25T02:59:07.630Z,99865.06
2019-05-25T02:59:43.730Z,99869.25
2019-05-25T03:00:24.081Z,99864.56
2019-05-25T03:01:00.863Z,99868.77
2019-05-25T03:01:37.604Z,99870.16
2019-05-25T03:02:13.064Z,99868.17
2019-05-25T03:02:49.145Z,99871.18
2019-05-25T03:03:25.495Z,99869.44
2019-05-25T03:04:01.073Z,99874.69
2019-05-25T03:04:38.352Z,99871.27
2019-05-25T03:05:16.132Z,99874.34
2019-05-25T03:05:53.469Z,99872.98
2019-05-25T03:06:30.787Z,99873.66
2019-05-25T03:07:07.033Z,99874.31
2019-05-25T03:07:44.147Z,99872.38
2019-05-25T03:08:21.434Z,99869.41
2019-05-25T03:08:59.422Z,99876.30
2019-05-25T03:09:36.932Z,99869.87
2019-05-25T03:10:14.544Z,99875.64
2019-05-25T03:10:51.409Z,99873.69
2019-05-25T03:11:29.277Z,99874.71
2019-05-25T03:12:06.087Z,99871.98
2019-05-25T03:12:44.243Z,99872.38
2019-05-25T03:13:20.623Z,99872.01
2019-05-25T03:13:57.306Z,99870.80
2019-05-25T03:14:33.410Z,99876.02
2019-05-25T03:15:09.730Z,99880.02
2019-05-25T03:15:46.483Z,99869.30
2019-05-25T03:16:22.742Z,99878.34
2019-05-25T03:16:59.036Z,99868.59
2019-05-25T03:17:35.823Z,99872.08
2019-05-25T03:18:12.319Z,99878.22
2019-05-25T03:18:47.729Z,99870.86
2019-05-25T03:19:23.837Z,99877.48
2019-05-25T03:20:00.542Z,99877.30
2019-05-25T03:20:36.316Z,99873.54
2019-05-25T03:21:13.285Z,99879.81
2019-05-25T03:21:49.361Z,99876.92
2019-05-25T03:22:24.957Z,99877.94
2019-05-25T03:23:01.536Z,99878.91
2019-05-25T03:23:38.520Z,99881.39
2019-05-25T03:24:14.014Z,99878.16
2019-05-25T03:24:50.072Z,99878.06
2019-05-25T03:25:27.054Z,99876.48
2019-05-25T03:26:02.922Z,99872.84
2019-05-25T03:26:39.050Z,99873.78
2019-05-25T03:27:15.154Z,99885.42
2019-05-25T03:27:50.647Z,99885.77
2019-05-25T03:28:27.720Z,99885.30
2019-05-25T03:29:03.879Z,99884.67
2019-05-25T03:29:39.328Z,99884.30
2019-05-25T03:30:17.637Z,99883.09
2019-05-25T03:30:53.790Z,99886.63
2019-05-25T03:31:29.315Z,99887.77
2019-05-25T03:32:05.872Z,99882.83
2019-05-25T03:32:41.991Z,99879.97
2019-05-25T03:33:17.861Z,99883.97
2019-05-25T03:33:53.952Z,99889.19
2019-05-25T03:34:30.621Z,99885.72
2019-05-25T03:35:07.139Z,99887.20
2019-05-25T03:35:43.809Z,99884.90
2019-05-25T03:36:19.881Z,99885.83
2019-05-25T03:36:55.516Z,99890.20
2019-05-25T03:37:32.082Z,99881.83
2019-05-25T03:38:08.620Z,99880.33
2019-05-25T03:38:44.421Z,99887.22
2019-05-25T03:39:20.512Z,99883.44
2019-05-25T03:39:56.627Z,99879.86
2019-05-25T03:40:32.575Z,99880.45
2019-05-25T03:41:09.301Z,99886.76
2019-05-25T03:41:45.989Z,99883.78
2019-05-25T03:42:22.677Z,99879.98
2019-05-25T03:42:58.901Z,99888.72
2019-05-25T03:43:35.585Z,99884.90
2019-05-25T03:44:11.451Z,99888.17
2019-05-25T03:44:47.506Z,99888.17
2019-05-25T03:45:24.225Z,99888.88
2019-05-25T03:46:00.084Z,99887.58
2019-05-25T03:46:36.376Z,99887.48
2019-05-25T03:47:12.837Z,99888.33
2019-05-25T03:47:48.625Z,99885.56
2019-05-25T03:48:24.817Z,99890.19
2019-05-25T03:49:01.401Z,99890.19
2019-05-25T03:49:37.650Z,99886.74
2019-05-25T03:50:13.916Z,99892.80
2019-05-25T03:50:50.601Z,99893.55
2019-05-25T03:51:26.570Z,99889.63
2019-05-25T03:52:02.748Z,99892.52
2019-05-25T03:52:39.167Z,99896.52
2019-05-25T03:53:14.619Z,99890.01
2019-05-25T03:53:50.693Z,99890.75
2019-05-25T03:54:27.568Z,99888.15
2019-05-25T03:55:03.677Z,99895.75
2019-05-25T03:55:40.432Z,99890.17
2019-05-25T03:56:16.889Z,99893.73
2019-05-25T03:56:52.740Z,99896.69
2019-05-25T03:57:29.393Z,99892.69
2019-05-25T03:58:05.544Z,99894.45
2019-05-25T03:58:41.620Z,99887.94
2019-05-25T03:59:18.078Z,99895.58
2019-05-25T03:59:54.531Z,99896.97
2019-05-25T04:00:37.896Z,99897.25
2019-05-25T04:01:14.381Z,99896.41
2019-05-25T04:01:51.156Z,99889.89
2019-05-25T04:02:26.786Z,99895.36
2019-05-25T04:03:02.916Z,99896.20
2019-05-25T04:03:39.723Z,99898.25
2019-05-25T04:04:15.817Z,99898.32
2019-05-25T04:04:52.570Z,99895.00
2019-05-25T04:05:28.718Z,99891.55
2019-05-25T04:06:04.839Z,99897.48
2019-05-25T04:06:40.905Z,99895.62
2019-05-25T04:07:17.035Z,99893.48
2019-05-25T04:07:52.540Z,99892.64
2019-05-25T04:08:28.749Z,99891.33
2019-05-25T04:09:05.752Z,99897.86
2019-05-25T04:09:41.912Z,99899.16
2019-05-25T04:10:18.522Z,99897.39
2019-05-25T04:10:54.952Z,99897.30
2019-05-25T04:11:31.067Z,99896.45
2019-05-25T04:12:08.154Z,99900.75
2019-05-25T04:12:44.661Z,99895.37
2019-05-25T04:13:20.133Z,99900.75
2019-05-25T04:13:56.646Z,99900.66
2019-05-25T04:14:33.406Z,99902.80
2019-05-25T04:15:09.247Z,99902.33
2019-05-25T04:15:45.311Z,99901.87
2019-05-25T04:16:21.434Z,99903.17
2019-05-25T04:16:57.658Z,99900.09
2019-05-25T04:17:34.749Z,99898.79
2019-05-25T04:18:11.400Z,99900.44
2019-05-25T04:18:46.839Z,99902.30
2019-05-25T04:19:22.918Z,99900.91
2019-05-25T04:19:59.679Z,99904.45
2019-05-25T04:20:35.796Z,99904.08
2019-05-25T04:21:12.183Z,99902.37
2019-05-25T04:21:48.241Z,99900.69
2019-05-25T04:22:24.343Z,99906.84
2019-05-25T04:23:00.484Z,99901.44
2019-05-25T04:23:37.151Z,99910.02
2019-05-25T04:24:17.100Z,99902.37
2019-05-25T04:24:53.894Z,99904.48
2019-05-25T04:25:29.996Z,99910.59
2019-05-25T04:26:21.403Z,99900.75
2019-05-25T04:26:44.590Z,99913.86
2019-05-25T04:27:21.558Z,99913.39
2019-05-25T04:27:57.241Z,99903.02
2019-05-25T04:28:34.274Z,99916.48
2019-05-25T04:29:10.316Z,99916.67
2019-05-25T04:29:45.767Z,99920.95
2019-05-25T04:30:22.020Z,99916.03
2019-05-25T04:30:58.197Z,99916.17
2019-05-25T04:31:33.687Z,99915.24
2019-05-25T04:32:09.768Z,99915.05
2019-05-25T04:32:45.858Z,99914.24
2019-05-25T04:33:22.410Z,99923.09
2019-05-25T04:33:58.805Z,99909.27
2019-05-25T04:34:35.149Z,99908.35
2019-05-25T04:35:11.507Z,99916.23
2019-05-25T04:35:47.646Z,99912.31
2019-05-25T04:36:24.075Z,99914.45
2019-05-25T04:37:00.249Z,99913.28
2019-05-25T04:37:36.966Z,99910.19
2019-05-25T04:38:13.029Z,99911.25
2019-05-25T04:38:48.559Z,99912.17
2019-05-25T04:39:25.092Z,99911.88
2019-05-25T04:40:01.188Z,99909.83
2019-05-25T04:40:36.706Z,99914.11
2019-05-25T04:41:12.783Z,99914.45
2019-05-25T04:41:48.926Z,99912.13
2019-05-25T04:42:24.668Z,99911.58
2019-05-25T04:43:00.754Z,99910.65
2019-05-25T04:43:37.531Z,99913.97
2019-05-25T04:44:13.356Z,99909.72
2019-05-25T04:44:50.369Z,99911.64
2019-05-25T04:45:27.242Z,99912.39
2019-05-25T04:46:03.344Z,99913.70
2019-05-25T04:46:40.072Z,99919.73
2019-05-25T04:47:26.624Z,99923.97
2019-05-25T04:47:55.174Z,99916.59
2019-05-25T04:48:31.319Z,99917.59
2019-05-25T04:49:08.319Z,99919.36
2019-05-25T04:49:43.773Z,99923.00
2019-05-25T04:50:20.098Z,99925.80
2019-05-25T04:50:56.582Z,99923.66
2019-05-25T04:51:32.738Z,99919.98
2019-05-25T04:52:09.445Z,99920.45
2019-05-25T04:52:45.559Z,99917.00
2019-05-25T04:53:21.385Z,99920.82
2019-05-25T04:53:57.735Z,99919.66
2019-05-25T04:54:34.120Z,99916.40
2019-05-25T04:55:10.649Z,99915.47
2019-05-25T04:55:46.700Z,99919.17
2019-05-25T04:56:38.301Z,99916.47
2019-05-25T04:57:00.520Z,99923.64
2019-05-25T04:57:37.217Z,99919.17
2019-05-25T04:58:13.917Z,99924.66
2019-05-25T04:58:49.991Z,99922.80
2019-05-25T04:59:26.119Z,99919.64
2019-05-25T05:00:03.509Z,99925.33
2019-05-25T05:00:39.989Z,99924.39
2019-05-25T05:01:16.126Z,99925.67
2019-05-25T05:01:52.153Z,99924.98
2019-05-25T05:02:28.445Z,99920.61
2019-05-25T05:03:04.599Z,99926.86
2019-05-25T05:03:41.060Z,99924.49
2019-05-25T05:04:16.932Z,99927.38
2019-05-25T05:04:53.176Z,99924.92
2019-05-25T05:05:30.208Z,99924.46
2019-05-25T05:06:05.723Z,99923.16
2019-05-25T05:06:41.755Z,99936.48
2019-05-25T05:07:17.783Z,99924.46
2019-05-25T05:07:53.531Z,99928.84
2019-05-25T05:08:29.718Z,99927.66
2019-05-25T05:09:07.534Z,99929.59
2019-05-25T05:09:43.260Z,99926.88
2019-05-25T05:10:19.316Z,99933.55
2019-05-25T05:10:56.823Z,99927.69
2019-05-25T05:11:32.309Z,99928.89
2019-05-25T05:12:08.968Z,99928.12
2019-05-25T05:12:45.947Z,99924.77
2019-05-25T05:13:22.539Z,99927.27
2019-05-25T05:13:59.370Z,99926.61
2019-05-25T05:14:36.561Z,99921.12
2019-05-25T05:15:12.596Z,99927.14
2019-05-25T05:15:49.238Z,99924.20
2019-05-25T05:16:25.940Z,99930.53
2019-05-25T05:17:02.042Z,99925.68
2019-05-25T05:17:38.727Z,99929.88
2019-05-25T05:18:15.708Z,99926.86
2019-05-25T05:18:51.894Z,99924.20
2019-05-25T05:19:28.750Z,99922.83
2019-05-25T05:20:06.970Z,99929.47
2019-05-25T05:20:43.051Z,99931.13
2019-05-25T05:21:19.112Z,99927.84
2019-05-25T05:21:56.203Z,99922.74
2019-05-25T05:22:32.761Z,99926.38
2019-05-25T05:23:10.142Z,99930.30
2019-05-25T05:23:47.107Z,99931.87
2019-05-25T05:24:23.179Z,99927.59
2019-05-25T05:24:59.657Z,99932.03
2019-05-25T05:25:36.883Z,99936.17
2019-05-25T05:26:13.243Z,99934.82
2019-05-25T05:26:55.868Z,99933.37
2019-05-25T05:27:28.808Z,99928.73
2019-05-25T05:28:05.290Z,99936.73
2019-05-25T05:28:42.267Z,99935.72
2019-05-25T05:29:19.573Z,99937.26
2019-05-25T05:29:56.015Z,99936.14
2019-05-25T05:30:34.229Z,99940.38
2019-05-25T05:31:23.298Z,99937.59
2019-05-25T05:31:48.933Z,99935.98
2019-05-25T05:32:27.846Z,99941.41
2019-05-25T05:33:04.825Z,99946.13
2019-05-25T05:33:40.962Z,99943.98
2019-05-25T05:34:17.338Z,99944.81
2019-05-25T05:34:54.556Z,99950.13
2019-05-25T05:35:32.369Z,99949.41
2019-05-25T05:36:10.024Z,99950.00
2019-05-25T05:36:46.793Z,99951.52
2019-05-25T05:37:24.863Z,99949.05
2019-05-25T05:38:05.112Z,99954.02
2019-05-25T05:38:42.246Z,99955.09
2019-05-25T05:39:18.132Z,99958.54
2019-05-25T05:39:57.315Z,99956.80
2019-05-25T05:40:36.402Z,99956.70
2019-05-25T05:41:14.140Z,99960.12
2019-05-25T05:41:51.228Z,99957.09
2019-05-25T05:42:29.692Z,99962.59
2019-05-25T05:43:10.116Z,99959.69
2019-05-25T05:43:48.809Z,99954.25
2019-05-25T05:44:27.758Z,99959.41
2019-05-25T05:45:04.754Z,99961.08
2019-05-25T05:45:43.171Z,99957.26
2019-05-25T05:46:21.773Z,99955.33
2019-05-25T05:46:59.854Z,99956.17
2019-05-25T05:47:37.421Z,99959.84
2019-05-25T05:48:14.795Z,99955.86
2019-05-25T05:48:52.407Z,99964.81
2019-05-25T05:49:30.158Z,99963.78
2019-05-25T05:50:07.886Z,99958.66
2019-05-25T05:50:46.523Z,99963.13
2019-05-25T05:51:23.397Z,99955.86
2019-05-25T05:52:05.238Z,99958.66
2019-05-25T05:52:41.016Z,99963.39
2019-05-25T05:53:21.708Z,99960.12
2019-05-25T05:53:58.249Z,99962.24
2019-05-25T05:54:34.140Z,99968.28
2019-05-25T05:55:12.593Z,99964.80
2019-05-25T05:55:49.566Z,99961.34
2019-05-25T05:56:26.153Z,99963.37
2019-05-25T05:57:11.957Z,99967.84
2019-05-25T05:57:41.289Z,99965.14
2019-05-25T05:58:17.811Z,99966.75
2019-05-25T05:58:54.478Z,99970.58
2019-05-25T05:59:31.365Z,99969.42
2019-05-25T06:00:08.576Z,99972.72
2019-05-25T06:00:45.496Z,99968.59
2019-05-25T06:01:21.859Z,99972.45
2019-05-25T06:01:58.363Z,99976.73
2019-05-25T06:02:35.059Z,99970.11
2019-05-25T06:03:12.031Z,99973.66
2019-05-25T06:03:48.151Z,99974.74
2019-05-25T06:04:25.183Z,99968.31
2019-05-25T06:05:03.167Z,99967.34
2019-05-25T06:05:39.627Z,99971.05
2019-05-25T06:06:16.235Z,99974.03
2019-05-25T06:06:52.894Z,99973.34
2019-05-25T06:07:29.621Z,99969.89
2019-05-25T06:08:06.413Z,99972.13
2019-05-25T06:08:42.664Z,99968.84
2019-05-25T06:09:19.121Z,99973.00
2019-05-25T06:09:55.321Z,99973.97
2019-05-25T06:10:31.438Z,99969.39
2019-05-25T06:11:07.487Z,99979.25
2019-05-25T06:11:44.117Z,99970.39
2019-05-25T06:12:21.168Z,99976.17
2019-05-25T06:12:57.263Z,99974.22
2019-05-25T06:13:33.403Z,99979.16
2019-05-25T06:14:10.128Z,99976.36
2019-05-25T06:14:46.925Z,99976.77
2019-05-25T06:15:24.001Z,99980.49
2019-05-25T06:16:01.476Z,99980.58
2019-05-25T06:16:37.911Z,99982.64
2019-05-25T06:17:14.559Z,99981.52
2019-05-25T06:17:51.579Z,99978.91
2019-05-25T06:18:27.610Z,99980.74
2019-05-25T06:19:03.713Z,99981.12
2019-05-25T06:19:39.771Z,99982.82
2019-05-25T06:20:15.811Z,99989.02
2019-05-25T06:20:51.877Z,99985.38
2019-05-25T06:21:28.547Z,99988.34
2019-05-25T06:22:04.666Z,99982.17
2019-05-25T06:22:41.326Z,99981.70
2019-05-25T06:23:20.642Z,99990.25
2019-05-25T06:23:56.803Z,99985.22
2019-05-25T06:24:33.512Z,99982.23
2019-05-25T06:25:10.319Z,99982.38
2019-05-25T06:25:45.769Z,99980.36
2019-05-25T06:26:22.420Z,99984.34
2019-05-25T06:26:59.290Z,99981.80
2019-05-25T06:27:34.788Z,99987.95
2019-05-25T06:28:11.441Z,99991.38
2019-05-25T06:28:47.654Z,99992.70
2019-05-25T06:29:23.306Z,99984.25
2019-05-25T06:30:00.416Z,99987.33
2019-05-25T06:30:36.429Z,99989.34
2019-05-25T06:31:12.228Z,99990.44
2019-05-25T06:31:48.874Z,99990.34
2019-05-25T06:32:25.120Z,99990.16
2019-05-25T06:33:00.863Z,99986.41
2019-05-25T06:33:37.489Z,99994.11
2019-05-25T06:34:13.541Z,99990.69
2019-05-25T06:34:49.054Z,99990.88
2019-05-25T06:35:25.144Z,99993.48
2019-05-25T06:36:01.206Z,99998.67
2019-05-25T06:36:37.976Z,99995.80
2019-05-25T06:37:14.919Z,100000.11
2019-05-25T06:37:51.454Z,100002.16
2019-05-25T06:38:27.869Z,99996.80
2019-05-25T06:39:04.790Z,100002.30
2019-05-25T06:39:41.448Z,99996.33
2019-05-25T06:40:17.807Z,99997.44
2019-05-25T06:40:54.498Z,99994.88
2019-05-25T06:41:31.652Z,100003.61
2019-05-25T06:42:07.692Z,100002.81
2019-05-25T06:42:44.782Z,100003.78
2019-05-25T06:43:21.418Z,99999.81
2019-05-25T06:43:57.804Z,99999.44
2019-05-25T06:44:34.766Z,99999.29
2019-05-25T06:45:12.141Z,99999.11
2019-05-25T06:45:48.232Z,99998.96
2019-05-25T06:46:24.926Z,100004.17
2019-05-25T06:47:01.789Z,99996.03
2019-05-25T06:47:37.861Z,99997.64
2019-05-25T06:48:14.465Z,99994.09
2019-05-25T06:48:51.488Z,99998.03
2019-05-25T06:49:28.040Z,99991.77
2019-05-25T06:50:05.667Z,99992.64
2019-05-25T06:50:42.294Z,99991.56
2019-05-25T06:51:18.333Z,99992.94
2019-05-25T06:51:55.850Z,99987.44
2019-05-25T06:52:33.049Z,99990.60
2019-05-25T06:53:09.089Z,99994.42
2019-05-25T06:53:45.737Z,99988.17
2019-05-25T06:54:22.415Z,99989.38
2019-05-25T06:54:58.938Z,99987.17
2019-05-25T06:55:35.599Z,99983.77
2019-05-25T06:56:12.247Z,99987.98
2019-05-25T06:56:48.613Z,99990.16
2019-05-25T06:57:25.600Z,99989.05
2019-05-25T06:58:03.008Z,99983.97
2019-05-25T06:58:39.035Z,99989.89
2019-05-25T06:59:16.083Z,99984.79
2019-05-25T06:59:53.406Z,99987.05
2019-05-25T07:00:29.490Z,99986.16
2019-05-25T07:01:06.361Z,99985.00
2019-05-25T07:01:43.472Z,99986.52
2019-05-25T07:02:22.589Z,99989.98
2019-05-25T07:02:58.575Z,99992.58
2019-05-25T07:03:35.314Z,99994.89
2019-05-25T07:04:11.432Z,99999.41
2019-05-25T07:04:48.743Z,99998.61
2019-05-25T07:05:25.832Z,99995.16
2019-05-25T07:06:02.015Z,100003.65
2019-05-25T07:06:38.751Z,100004.22
2019-05-25T07:07:15.794Z,100001.94
2019-05-25T07:07:54.709Z,100006.19
2019-05-25T07:08:31.312Z,100010.55
2019-05-25T07:09:10.183Z,100005.29
2019-05-25T07:09:46.546Z,100013.94